createdAt,value
2023-01-15T00:00:55.855Z,0.600000024
2023-01-15T00:01:56.815Z,0.5
2023-01-15T00:02:57.822Z,1
2023-01-15T00:03:58.638Z,0.600000024
2023-01-15T00:04:59.432Z,0.5
2023-01-15T00:06:00.908Z,0.600000024
2023-01-15T00:07:01.693Z,0.600000024
2023-01-15T00:08:02.484Z,0.5
2023-01-15T00:09:03.290Z,0.400000006
2023-01-15T00:10:05.052Z,0.400000006
2023-01-15T00:11:05.767Z,0.5
2023-01-15T00:12:06.598Z,0.300000012
2023-01-15T00:13:07.408Z,0.400000006
2023-01-15T00:14:08.196Z,0.5
2023-01-15T00:15:09.087Z,0.600000024
2023-01-15T00:16:10.499Z,0.5
2023-01-15T00:17:11.490Z,0.5
2023-01-15T00:18:12.307Z,0.600000024
2023-01-15T00:19:13.078Z,0.5
2023-01-15T00:20:13.842Z,0.5
2023-01-15T00:21:14.613Z,0.800000012
2023-01-15T00:22:15.359Z,0.400000006
2023-01-15T00:23:16.173Z,0.600000024
2023-01-15T00:24:16.923Z,0.699999988
2023-01-15T00:25:17.800Z,0.600000024
2023-01-15T00:26:19.400Z,0.300000012
2023-01-15T00:27:20.183Z,0.699999988
2023-01-15T00:28:21.035Z,0.5
2023-01-15T00:29:21.820Z,0.600000024
2023-01-15T00:30:22.678Z,0.600000024
2023-01-15T00:31:23.471Z,0.800000012
2023-01-15T00:32:24.686Z,0.5
2023-01-15T00:33:55.890Z,0.699999988
2023-01-15T00:34:56.889Z,0.600000024
2023-01-15T00:35:57.673Z,0.5
2023-01-15T00:36:59.316Z,0.400000006
2023-01-15T00:38:00.162Z,0.600000024
2023-01-15T00:39:00.904Z,0.600000024
2023-01-15T00:40:01.730Z,0.5
2023-01-15T00:41:02.565Z,0.600000024
2023-01-15T00:42:03.378Z,0.400000006
2023-01-15T00:43:04.281Z,0.899999976
2023-01-15T00:44:05.108Z,0.5
2023-01-15T00:45:06.394Z,0.600000024
2023-01-15T00:46:07.234Z,0.400000006
2023-01-15T00:47:08.817Z,0.400000006
2023-01-15T00:48:09.651Z,0.600000024
2023-01-15T00:49:10.476Z,0.400000006
2023-01-15T00:50:11.989Z,0.600000024
2023-01-15T00:51:12.869Z,0.699999988
2023-01-15T00:52:13.623Z,0.5
2023-01-15T00:53:14.420Z,0.400000006
2023-01-15T00:54:15.424Z,0.699999988
2023-01-15T00:55:16.907Z,0.699999988
2023-01-15T00:56:18.461Z,0.400000006
2023-01-15T00:57:19.237Z,0.600000024
2023-01-15T00:58:20.050Z,1.299999952
2023-01-15T00:59:20.853Z,0.5
2023-01-15T01:00:21.657Z,0.600000024
2023-01-15T01:01:22.620Z,0.600000024
2023-01-15T01:02:23.322Z,0.600000024
2023-01-15T01:03:24.500Z,0.5
2023-01-15T01:04:55.712Z,0.400000006
2023-01-15T01:05:56.476Z,0.300000012
2023-01-15T01:06:57.902Z,0.699999988
2023-01-15T01:07:58.705Z,0.800000012
2023-01-15T01:08:59.551Z,0.5
2023-01-15T01:10:00.381Z,0.699999988
2023-01-15T01:11:01.890Z,0.400000006
2023-01-15T01:12:02.732Z,0.5
2023-01-15T01:13:03.540Z,0.5
2023-01-15T01:14:04.469Z,0.400000006
2023-01-15T01:15:05.632Z,0.400000006
2023-01-15T01:16:06.484Z,0.699999988
2023-01-15T01:17:07.830Z,0.5
2023-01-15T01:18:08.605Z,0.400000006
2023-01-15T01:19:09.399Z,0.400000006
2023-01-15T01:20:10.289Z,0.300000012
2023-01-15T01:21:11.098Z,0.600000024
2023-01-15T01:22:11.919Z,0.400000006
2023-01-15T01:23:12.716Z,1.200000048
2023-01-15T01:24:13.590Z,0.400000006
2023-01-15T01:25:14.327Z,0.5
2023-01-15T01:26:15.098Z,0.400000006
2023-01-15T01:27:16.846Z,0.400000006
2023-01-15T01:28:17.635Z,0.300000012
2023-01-15T01:29:18.487Z,0.5
2023-01-15T01:30:19.386Z,0.600000024
2023-01-15T01:31:20.313Z,0.800000012
2023-01-15T01:32:21.288Z,0.5
2023-01-15T01:33:22.070Z,0.400000006
2023-01-15T01:34:22.831Z,0.400000006
2023-01-15T01:35:24.155Z,0.600000024
2023-01-15T01:36:56.435Z,0.400000006
2023-01-15T01:37:57.546Z,0.600000024
2023-01-15T01:38:58.360Z,0.5
2023-01-15T01:39:59.143Z,1
2023-01-15T01:41:00.095Z,0.400000006
2023-01-15T01:42:01.024Z,0.5
2023-01-15T01:43:02.114Z,0.5
2023-01-15T01:44:02.829Z,0.5
2023-01-15T01:45:03.658Z,0.300000012
2023-01-15T01:46:04.528Z,0.5
2023-01-15T01:47:05.919Z,0.600000024
2023-01-15T01:48:06.930Z,0.600000024
2023-01-15T01:49:07.851Z,0.600000024
2023-01-15T01:50:08.653Z,0.5
2023-01-15T01:51:09.446Z,0.5
2023-01-15T01:52:10.351Z,0.5
2023-01-15T01:53:11.297Z,0.699999988
2023-01-15T01:54:12.203Z,0.400000006
2023-01-15T01:55:13.086Z,0.600000024
2023-01-15T01:56:13.968Z,0.400000006
2023-01-15T01:57:15.491Z,0.400000006
2023-01-15T01:58:16.393Z,0.5
2023-01-15T01:59:17.286Z,0.400000006
2023-01-15T02:00:18.156Z,0.400000006
2023-01-15T02:01:19.074Z,0.400000006
2023-01-15T02:02:19.805Z,0.5
2023-01-15T02:03:20.716Z,0.5
2023-01-15T02:04:22.451Z,0.600000024
2023-01-15T02:05:23.866Z,0.5
2023-01-15T02:06:55.913Z,0.600000024
2023-01-15T02:07:56.990Z,0.400000006
2023-01-15T02:08:57.997Z,0.600000024
2023-01-15T02:09:58.878Z,0.400000006
2023-01-15T02:10:59.655Z,0.600000024
2023-01-15T02:12:00.470Z,0.400000006
2023-01-15T02:13:01.277Z,0.5
2023-01-15T02:14:02.232Z,0.5
2023-01-15T02:15:03.152Z,0.400000006
2023-01-15T02:16:04.177Z,0.200000003
2023-01-15T02:17:05.754Z,0.400000006
2023-01-15T02:18:06.512Z,0.600000024
2023-01-15T02:19:08.410Z,0.600000024
2023-01-15T02:20:09.498Z,0.400000006
2023-01-15T02:21:10.391Z,0.400000006
2023-01-15T02:22:11.193Z,0.400000006
2023-01-15T02:23:11.932Z,0.600000024
2023-01-15T02:24:12.781Z,0.400000006
2023-01-15T02:25:13.681Z,0.699999988
2023-01-15T02:26:15.514Z,0.600000024
2023-01-15T02:27:16.474Z,0.400000006
2023-01-15T02:28:17.252Z,0.400000006
2023-01-15T02:29:18.926Z,0.5
2023-01-15T02:30:19.790Z,0.5
2023-01-15T02:31:20.758Z,0.300000012
2023-01-15T02:32:21.652Z,0.5
2023-01-15T02:33:22.459Z,0.600000024
2023-01-15T02:34:23.741Z,0.899999976
2023-01-15T02:35:55.066Z,0.600000024
2023-01-15T02:36:56.945Z,0.5
2023-01-15T02:37:57.882Z,0.5
2023-01-15T02:38:58.697Z,0.600000024
2023-01-15T02:39:59.494Z,0.600000024
2023-01-15T02:41:00.890Z,0.699999988
2023-01-15T02:42:01.810Z,0.400000006
2023-01-15T02:43:02.704Z,0.699999988
2023-01-15T02:44:03.533Z,0.800000012
2023-01-15T02:45:04.400Z,0.600000024
2023-01-15T02:46:05.256Z,0.5
2023-01-15T02:47:06.939Z,0.699999988
2023-01-15T02:48:07.806Z,0.699999988
2023-01-15T02:49:08.642Z,0.600000024
2023-01-15T02:50:09.434Z,0.5
2023-01-15T02:51:10.167Z,0.600000024
2023-01-15T02:52:11.030Z,0.600000024
2023-01-15T02:53:11.917Z,0.5
2023-01-15T02:54:12.783Z,0.5
2023-01-15T02:55:13.549Z,0.800000012
2023-01-15T02:56:14.312Z,0.5
2023-01-15T02:57:15.935Z,0.699999988
2023-01-15T02:58:16.863Z,0.600000024
2023-01-15T02:59:17.828Z,0.699999988
2023-01-15T03:00:18.622Z,0.600000024
2023-01-15T03:01:19.485Z,0.5
2023-01-15T03:02:20.179Z,0.699999988
2023-01-15T03:03:21.897Z,0.699999988
2023-01-15T03:04:22.801Z,0.5
2023-01-15T03:05:54.078Z,0.5
2023-01-15T03:06:54.946Z,0.699999988
2023-01-15T03:07:56.322Z,1
2023-01-15T03:08:57.525Z,0.800000012
2023-01-15T03:09:58.521Z,0.699999988
2023-01-15T03:10:59.359Z,0.699999988
2023-01-15T03:12:00.208Z,0.5
2023-01-15T03:13:01.109Z,0.699999988
2023-01-15T03:14:02.039Z,0.600000024
2023-01-15T03:15:02.930Z,0.699999988
2023-01-15T03:16:03.819Z,0.600000024
2023-01-15T03:17:05.403Z,0.600000024
2023-01-15T03:18:06.197Z,0.5
2023-01-15T03:19:07.059Z,0.5
2023-01-15T03:20:07.899Z,0.600000024
2023-01-15T03:21:09.411Z,0.400000006
2023-01-15T03:22:10.135Z,0.5
2023-01-15T03:23:10.977Z,0.400000006
2023-01-15T03:24:11.911Z,0.400000006
2023-01-15T03:25:12.816Z,0.600000024
2023-01-15T03:26:13.707Z,0.5
2023-01-15T03:27:15.420Z,0.600000024
2023-01-15T03:28:16.207Z,0.600000024
2023-01-15T03:29:17.041Z,0.899999976
2023-01-15T03:30:17.923Z,0.5
2023-01-15T03:31:18.879Z,0.5
2023-01-15T03:32:19.718Z,0.699999988
2023-01-15T03:33:21.347Z,0.699999988
2023-01-15T03:34:22.094Z,0.600000024
2023-01-15T03:35:53.668Z,0.5
2023-01-15T03:36:54.602Z,0.699999988
2023-01-15T03:37:56.375Z,0.5
2023-01-15T03:38:57.517Z,0.5
2023-01-15T03:39:58.305Z,0.800000012
2023-01-15T03:40:59.918Z,0.400000006
2023-01-15T03:42:01.051Z,0.699999988
2023-01-15T03:43:01.689Z,0.5
2023-01-15T03:44:02.506Z,0.5
2023-01-15T03:45:03.308Z,0.400000006
2023-01-15T03:46:04.102Z,0.600000024
2023-01-15T03:47:05.160Z,0.400000006
2023-01-15T03:48:06.948Z,0.5
2023-01-15T03:49:07.867Z,0.5
2023-01-15T03:50:08.679Z,0.600000024
2023-01-15T03:51:09.452Z,0.400000006
2023-01-15T03:52:10.349Z,0.400000006
2023-01-15T03:53:11.234Z,0.300000012
2023-01-15T03:54:12.181Z,0.600000024
2023-01-15T03:55:12.915Z,0.400000006
2023-01-15T03:56:13.702Z,0.300000012
2023-01-15T03:57:14.680Z,0.400000006
2023-01-15T03:58:16.382Z,0.5
2023-01-15T03:59:17.277Z,0.400000006
2023-01-15T04:00:18.088Z,0.300000012
2023-01-15T04:01:18.974Z,0.400000006
2023-01-15T04:02:19.707Z,0.400000006
2023-01-15T04:03:20.584Z,0.400000006
2023-01-15T04:04:21.540Z,0.300000012
2023-01-15T04:05:22.909Z,0.200000003
2023-01-15T04:06:54.206Z,0.200000003
2023-01-15T04:07:55.884Z,0.400000006
2023-01-15T04:08:56.847Z,0.200000003
2023-01-15T04:09:57.881Z,0.300000012
2023-01-15T04:10:59.444Z,0.200000003
2023-01-15T04:12:00.297Z,0.200000003
2023-01-15T04:13:01.225Z,0.300000012
2023-01-15T04:14:02.172Z,0.100000001
2023-01-15T04:15:03.160Z,0.200000003
2023-01-15T04:16:04.235Z,0.400000006
2023-01-15T04:17:04.994Z,0.100000001
2023-01-15T04:18:06.406Z,0.400000006
2023-01-15T04:19:07.341Z,0.100000001
2023-01-15T04:20:08.311Z,0.200000003
2023-01-15T04:21:09.263Z,0.200000003
2023-01-15T04:22:10.989Z,0.100000001
2023-01-15T04:23:11.895Z,0.100000001
2023-01-15T04:24:12.778Z,0.200000003
2023-01-15T04:25:13.708Z,0.200000003
2023-01-15T04:26:14.814Z,0.100000001
2023-01-15T04:27:15.724Z,0.100000001
2023-01-15T04:28:17.331Z,0.100000001
2023-01-15T04:29:18.138Z,0
2023-01-15T04:30:19.018Z,0.100000001
2023-01-15T04:31:20.091Z,0.100000001
2023-01-15T04:32:20.889Z,0.100000001
2023-01-15T04:33:21.908Z,0.200000003
2023-01-15T04:34:53.201Z,0.100000001
2023-01-15T04:35:54.054Z,0.100000001
2023-01-15T04:36:55.075Z,0.100000001
2023-01-15T04:37:56.987Z,0.100000001
2023-01-15T04:38:57.962Z,0
2023-01-15T04:39:58.765Z,0.100000001
2023-01-15T04:40:59.614Z,0
2023-01-15T04:42:00.579Z,0
2023-01-15T04:43:02.528Z,0
2023-01-15T04:44:03.587Z,0
2023-01-15T04:45:04.414Z,0.100000001
2023-01-15T04:46:05.299Z,0.100000001
2023-01-15T04:47:06.090Z,0
2023-01-15T04:48:07.955Z,0.100000001
2023-01-15T04:49:09.060Z,0.300000012
2023-01-15T04:50:09.911Z,0
2023-01-15T04:51:11.325Z,0
2023-01-15T04:52:12.315Z,0.100000001
2023-01-15T04:53:13.253Z,0
2023-01-15T04:54:14.247Z,0.100000001
2023-01-15T04:55:15.147Z,0.100000001
2023-01-15T04:56:15.987Z,0.100000001
2023-01-15T04:57:16.818Z,0
2023-01-15T04:58:18.399Z,0
2023-01-15T04:59:19.368Z,0
2023-01-15T05:00:20.313Z,0.100000001
2023-01-15T05:01:21.250Z,0
2023-01-15T05:02:52.806Z,0
2023-01-15T05:03:53.654Z,0
2023-01-15T05:04:54.559Z,0
2023-01-15T05:05:55.505Z,0.100000001
2023-01-15T05:06:56.435Z,0
2023-01-15T05:07:57.926Z,0
2023-01-15T05:08:58.714Z,0
2023-01-15T05:09:59.715Z,0
2023-01-15T05:11:00.636Z,0
2023-01-15T05:12:01.606Z,0
2023-01-15T05:13:02.415Z,0
2023-01-15T05:14:03.243Z,0.100000001
2023-01-15T05:15:04.141Z,0
2023-01-15T05:16:05.069Z,0
2023-01-15T05:17:05.959Z,0
2023-01-15T05:18:07.508Z,0
2023-01-15T05:19:09.388Z,0
2023-01-15T05:20:09.809Z,0
2023-01-15T05:21:10.787Z,0
2023-01-15T05:22:11.702Z,0
2023-01-15T05:23:12.623Z,0
2023-01-15T05:24:13.768Z,0
2023-01-15T05:25:14.810Z,0
2023-01-15T05:26:15.658Z,0
2023-01-15T05:27:16.558Z,0.100000001
2023-01-15T05:28:17.997Z,0
2023-01-15T05:29:18.807Z,0
2023-01-15T05:30:19.632Z,0.100000001
2023-01-15T05:31:20.646Z,0
2023-01-15T05:32:21.920Z,0
2023-01-15T05:33:53.337Z,0
2023-01-15T05:34:54.081Z,0
2023-01-15T05:35:54.917Z,0
2023-01-15T05:36:55.768Z,0
2023-01-15T05:37:57.723Z,0.100000001
2023-01-15T05:38:58.671Z,0
2023-01-15T05:40:00.408Z,0
2023-01-15T05:41:01.200Z,0
2023-01-15T05:42:02.050Z,0
2023-01-15T05:43:02.957Z,0
2023-01-15T05:44:03.782Z,0
2023-01-15T05:45:05.456Z,0
2023-01-15T05:46:06.372Z,0
2023-01-15T05:47:07.094Z,0
2023-01-15T05:48:09.018Z,0
2023-01-15T05:49:09.974Z,0
2023-01-15T05:50:10.881Z,0
2023-01-15T05:51:11.685Z,0
2023-01-15T05:52:13.307Z,0
2023-01-15T05:53:14.181Z,0
2023-01-15T05:54:15.140Z,0
2023-01-15T05:55:16.000Z,0
2023-01-15T05:56:17.176Z,0.100000001
2023-01-15T05:57:18.003Z,0.300000012
2023-01-15T05:58:19.459Z,0
2023-01-15T05:59:20.430Z,0
2023-01-15T06:00:21.908Z,0.100000001
2023-01-15T06:01:53.239Z,0.100000001
2023-01-15T06:02:54.118Z,0.100000001
2023-01-15T06:03:54.973Z,0
2023-01-15T06:04:55.838Z,0.100000001
2023-01-15T06:05:56.745Z,0
2023-01-15T06:06:57.760Z,0.100000001
2023-01-15T06:08:01.094Z,0
2023-01-15T06:09:00.363Z,0.100000001
2023-01-15T06:10:01.308Z,0.100000001
2023-01-15T06:11:02.238Z,0
2023-01-15T06:12:03.205Z,0.200000003
2023-01-15T06:13:04.035Z,0
2023-01-15T06:14:05.841Z,0.100000001
2023-01-15T06:15:06.706Z,0.100000001
2023-01-15T06:16:07.729Z,0
2023-01-15T06:17:08.726Z,0.100000001
2023-01-15T06:18:10.463Z,0.100000001
2023-01-15T06:19:11.367Z,0
2023-01-15T06:20:12.841Z,0.100000001
2023-01-15T06:21:13.832Z,0
2023-01-15T06:22:14.902Z,0
2023-01-15T06:23:15.761Z,0.200000003
2023-01-15T06:24:16.635Z,0.100000001
2023-01-15T06:25:17.430Z,0.100000001
2023-01-15T06:26:18.276Z,0.100000001
2023-01-15T06:27:19.213Z,0.100000001
2023-01-15T06:28:20.952Z,0.100000001
2023-01-15T06:29:52.138Z,0.100000001
2023-01-15T06:30:52.933Z,0.100000001
2023-01-15T06:31:53.769Z,0.100000001
2023-01-15T06:32:54.782Z,0
2023-01-15T06:33:55.611Z,0.100000001
2023-01-15T06:34:56.374Z,0
2023-01-15T06:35:57.652Z,0.200000003
2023-01-15T06:36:58.463Z,0.300000012
2023-01-15T06:37:59.390Z,0.100000001
2023-01-15T06:39:00.932Z,0
2023-01-15T06:40:01.757Z,0
2023-01-15T06:41:02.584Z,0.100000001
2023-01-15T06:42:03.420Z,0
2023-01-15T06:43:04.404Z,0.100000001
2023-01-15T06:44:05.257Z,0.200000003
2023-01-15T06:45:06.954Z,0
2023-01-15T06:46:07.805Z,0.100000001
2023-01-15T06:47:08.716Z,0.100000001
2023-01-15T06:48:10.450Z,0.200000003
2023-01-15T06:49:11.434Z,0.100000001
2023-01-15T06:50:12.394Z,0.200000003
2023-01-15T06:51:13.898Z,0.100000001
2023-01-15T06:52:14.694Z,0
2023-01-15T06:53:15.553Z,0.100000001
2023-01-15T06:54:16.460Z,0.200000003
2023-01-15T06:55:17.400Z,0.200000003
2023-01-15T06:56:18.313Z,0.100000001
2023-01-15T06:57:19.196Z,0.200000003
2023-01-15T06:58:19.977Z,0.100000001
2023-01-15T06:59:51.942Z,0.100000001
2023-01-15T07:00:52.926Z,0.100000001
2023-01-15T07:01:53.973Z,0.100000001
2023-01-15T07:02:54.610Z,0.100000001
2023-01-15T07:03:55.469Z,0.100000001
2023-01-15T07:04:56.371Z,0.200000003
2023-01-15T07:05:57.707Z,0.200000003
2023-01-15T07:06:58.681Z,0.100000001
2023-01-15T07:07:59.649Z,0.100000001
2023-01-15T07:09:01.425Z,0
2023-01-15T07:10:02.104Z,0.100000001
2023-01-15T07:11:03.051Z,0.100000001
2023-01-15T07:12:04.097Z,0.100000001
2023-01-15T07:13:05.907Z,0.200000003
2023-01-15T07:14:06.758Z,0.200000003
2023-01-15T07:15:07.640Z,0.100000001
2023-01-15T07:16:08.680Z,0.100000001
2023-01-15T07:17:09.579Z,0.200000003
2023-01-15T07:18:10.503Z,0.100000001
2023-01-15T07:19:12.374Z,0
2023-01-15T07:20:13.175Z,0.200000003
2023-01-15T07:21:14.019Z,0.100000001
2023-01-15T07:22:14.992Z,0.200000003
2023-01-15T07:23:16.877Z,0.100000001
2023-01-15T07:24:16.969Z,0.100000001
2023-01-15T07:25:17.791Z,0.100000001
2023-01-15T07:26:18.631Z,0.200000003
2023-01-15T07:27:19.637Z,0.200000003
2023-01-15T07:28:21.045Z,0.400000006
2023-01-15T07:29:53.362Z,0.100000001
2023-01-15T07:30:54.155Z,0.300000012
2023-01-15T07:31:55.048Z,0.200000003
2023-01-15T07:32:55.989Z,0.100000001
2023-01-15T07:34:27.729Z,0.100000001
2023-01-15T07:35:58.937Z,0.200000003
2023-01-15T07:36:59.756Z,0.200000003
2023-01-15T07:38:00.696Z,0.100000001
2023-01-15T07:39:02.464Z,0.300000012
2023-01-15T07:40:03.462Z,0.100000001
2023-01-15T07:41:04.436Z,0.200000003
2023-01-15T07:42:05.317Z,0.200000003
2023-01-15T07:43:06.278Z,0.200000003
2023-01-15T07:44:07.185Z,0.200000003
2023-01-15T07:45:08.152Z,0.100000001
2023-01-15T07:46:09.066Z,0.200000003
2023-01-15T07:47:09.972Z,0.100000001
2023-01-15T07:48:10.889Z,0.100000001
2023-01-15T07:49:12.472Z,0.100000001
2023-01-15T07:50:13.503Z,0.100000001
2023-01-15T07:51:15.494Z,0.200000003
2023-01-15T07:52:16.378Z,0.100000001
2023-01-15T07:53:17.162Z,0.100000001
2023-01-15T07:54:18.054Z,0.200000003
2023-01-15T07:55:18.980Z,0.100000001
2023-01-15T07:56:20.021Z,0.100000001
2023-01-15T07:57:51.320Z,0.100000001
2023-01-15T07:58:52.831Z,0.100000001
2023-01-15T07:59:53.838Z,0.100000001
2023-01-15T08:00:55.546Z,0.200000003
2023-01-15T08:01:56.531Z,0.200000003
2023-01-15T08:02:57.507Z,0.100000001
2023-01-15T08:03:58.578Z,0.100000001
2023-01-15T08:04:59.355Z,0.300000012
2023-01-15T08:06:00.235Z,0.200000003
2023-01-15T08:07:01.337Z,0.300000012
2023-01-15T08:08:02.044Z,0.200000003
2023-01-15T08:09:03.412Z,0.300000012
2023-01-15T08:10:04.217Z,0.200000003
2023-01-15T08:11:05.111Z,0.200000003
2023-01-15T08:12:06.167Z,0.100000001
2023-01-15T08:13:06.860Z,0.100000001
2023-01-15T08:14:07.919Z,0.200000003
2023-01-15T08:15:08.725Z,0.300000012
2023-01-15T08:16:09.731Z,0.200000003
2023-01-15T08:17:10.640Z,0.200000003
2023-01-15T08:18:11.495Z,0.200000003
2023-01-15T08:19:12.857Z,0.200000003
2023-01-15T08:20:13.703Z,0.100000001
2023-01-15T08:21:15.391Z,0.400000006
2023-01-15T08:22:16.328Z,0.200000003
2023-01-15T08:23:17.372Z,0.5
2023-01-15T08:24:18.221Z,0.200000003
2023-01-15T08:25:19.024Z,0.100000001
2023-01-15T08:26:20.261Z,0.200000003
2023-01-15T08:27:51.702Z,0.200000003
2023-01-15T08:28:52.596Z,0.200000003
2023-01-15T08:29:54.350Z,0.200000003
2023-01-15T08:30:55.241Z,0.200000003
2023-01-15T08:31:56.245Z,0.300000012
2023-01-15T08:32:57.602Z,0.200000003
2023-01-15T08:33:58.562Z,0.100000001
2023-01-15T08:34:59.429Z,0.300000012
2023-01-15T08:36:00.234Z,0.200000003
2023-01-15T08:37:01.075Z,0.200000003
2023-01-15T08:38:02.149Z,0.200000003
2023-01-15T08:39:03.077Z,0.5
2023-01-15T08:40:05.045Z,0.699999988
2023-01-15T08:41:05.906Z,0.400000006
2023-01-15T08:42:06.731Z,0.300000012
2023-01-15T08:43:07.690Z,0.200000003
2023-01-15T08:44:08.670Z,0.300000012
2023-01-15T08:45:10.488Z,0.5
2023-01-15T08:46:11.412Z,0.300000012
2023-01-15T08:47:12.186Z,0.400000006
2023-01-15T08:48:13.080Z,0.600000024
2023-01-15T08:49:14.987Z,0.600000024
2023-01-15T08:50:16.007Z,0.400000006
2023-01-15T08:51:17.919Z,1
2023-01-15T08:52:18.724Z,0.5
2023-01-15T08:53:20.102Z,0.699999988
2023-01-15T08:54:51.396Z,0.5
2023-01-15T08:55:52.358Z,0.5
2023-01-15T08:56:53.395Z,0.5
2023-01-15T08:57:54.212Z,0.400000006
2023-01-15T08:58:55.048Z,0.5
2023-01-15T08:59:56.943Z,0.699999988
2023-01-15T09:00:57.980Z,0.600000024
2023-01-15T09:01:59.114Z,0.400000006
2023-01-15T09:02:59.992Z,0.5
2023-01-15T09:04:00.994Z,0.5
2023-01-15T09:05:01.792Z,0.200000003
2023-01-15T09:06:02.595Z,0.400000006
2023-01-15T09:07:03.533Z,0.300000012
2023-01-15T09:08:04.536Z,0.400000006
2023-01-15T09:09:05.549Z,0.200000003
2023-01-15T09:10:06.818Z,0.5
2023-01-15T09:11:07.645Z,0.200000003
2023-01-15T09:12:08.556Z,0.200000003
2023-01-15T09:13:09.484Z,0.400000006
2023-01-15T09:14:58.885Z,0.300000012
2023-01-15T09:15:11.152Z,0.200000003
2023-01-15T09:16:12.558Z,0.100000001
2023-01-15T09:17:13.239Z,0.200000003
2023-01-15T09:18:14.891Z,0.100000001
2023-01-15T09:19:15.817Z,0.200000003
2023-01-15T09:20:17.414Z,0.300000012
2023-01-15T09:21:18.129Z,0.200000003
2023-01-15T09:22:18.980Z,0.200000003
2023-01-15T09:23:50.403Z,0.200000003
2023-01-15T09:24:51.316Z,0.300000012
2023-01-15T09:25:53.074Z,0.100000001
2023-01-15T09:26:53.194Z,0.100000001
2023-01-15T09:27:54.092Z,0.200000003
2023-01-15T09:28:54.992Z,0.200000003
2023-01-15T09:29:56.474Z,0.100000001
2023-01-15T09:30:57.805Z,0.200000003
2023-01-15T09:31:58.478Z,0.5
2023-01-15T09:32:59.395Z,0.300000012
2023-01-15T09:34:00.379Z,0.200000003
2023-01-15T09:35:01.290Z,0.200000003
2023-01-15T09:36:02.188Z,0.200000003
2023-01-15T09:37:03.106Z,0.200000003
2023-01-15T09:38:04.094Z,0.100000001
2023-01-15T09:39:05.121Z,0.200000003
2023-01-15T09:40:07.136Z,0.200000003
2023-01-15T09:41:08.029Z,0.100000001
2023-01-15T09:42:08.899Z,0.100000001
2023-01-15T09:43:10.375Z,0.200000003
2023-01-15T09:44:11.324Z,0.200000003
2023-01-15T09:45:12.345Z,0.200000003
2023-01-15T09:46:13.253Z,0.100000001
2023-01-15T09:47:14.009Z,0.100000001
2023-01-15T09:48:17.354Z,0.400000006
2023-01-15T09:49:16.429Z,0.200000003
2023-01-15T09:50:17.380Z,0.200000003
2023-01-15T09:51:19.367Z,0.200000003
2023-01-15T09:52:50.960Z,0
2023-01-15T09:53:51.882Z,0.200000003
2023-01-15T09:54:52.721Z,0.5
2023-01-15T09:55:53.635Z,0
2023-01-15T09:56:54.672Z,0.100000001
2023-01-15T09:57:55.701Z,0.100000001
2023-01-15T09:58:56.615Z,0.200000003
2023-01-15T09:59:58.491Z,0.100000001
2023-01-15T10:00:59.486Z,0.200000003
2023-01-15T10:02:00.331Z,0.200000003
2023-01-15T10:03:01.385Z,0
2023-01-15T10:04:02.402Z,0.100000001
2023-01-15T10:05:04.973Z,0.100000001
2023-01-15T10:06:04.347Z,0.100000001
2023-01-15T10:07:05.296Z,0.300000012
2023-01-15T10:08:06.231Z,0.100000001
2023-01-15T10:09:07.318Z,0.100000001
2023-01-15T10:10:08.900Z,0.100000001
2023-01-15T10:11:10.419Z,0.100000001
2023-01-15T10:12:11.281Z,0.100000001
2023-01-15T10:13:12.306Z,0.100000001
2023-01-15T10:14:13.279Z,0.200000003
2023-01-15T10:15:14.238Z,0.100000001
2023-01-15T10:16:15.239Z,0.200000003
2023-01-15T10:17:16.006Z,0.300000012
2023-01-15T10:18:16.950Z,0.600000024
2023-01-15T10:19:18.960Z,0.100000001
2023-01-15T10:20:50.985Z,0.100000001
2023-01-15T10:21:51.912Z,0.400000006
2023-01-15T10:22:52.732Z,0.200000003
2023-01-15T10:23:53.599Z,0.200000003
2023-01-15T10:24:54.573Z,0.100000001
2023-01-15T10:25:56.474Z,0.100000001
2023-01-15T10:26:57.782Z,0
2023-01-15T10:27:58.489Z,0
2023-01-15T10:28:59.407Z,0.100000001
2023-01-15T10:30:01.059Z,0
2023-01-15T10:31:02.052Z,0.100000001
2023-01-15T10:32:03.205Z,0.200000003
2023-01-15T10:33:04.088Z,0
2023-01-15T10:34:05.082Z,0.100000001
2023-01-15T10:35:07.011Z,0.100000001
2023-01-15T10:36:08.014Z,0.300000012
2023-01-15T10:37:09.000Z,0.200000003
2023-01-15T10:38:10.043Z,0.100000001
2023-01-15T10:39:12.109Z,0.100000001
2023-01-15T10:40:14.039Z,0.100000001
2023-01-15T10:41:15.087Z,0
2023-01-15T10:42:17.002Z,0.200000003
2023-01-15T10:43:17.791Z,0.200000003
2023-01-15T10:44:49.503Z,0.200000003
2023-01-15T10:45:51.050Z,0.300000012
2023-01-15T10:46:54.375Z,0.200000003
2023-01-15T10:47:52.894Z,0.100000001
2023-01-15T10:48:53.794Z,0.100000001
2023-01-15T10:49:55.424Z,0.100000001
2023-01-15T10:50:56.288Z,0.200000003
2023-01-15T10:51:57.716Z,0.100000001
2023-01-15T10:52:58.704Z,0.200000003
2023-01-15T10:53:59.508Z,0.100000001
2023-01-15T10:55:00.975Z,0.100000001
2023-01-15T10:56:01.937Z,0.100000001
2023-01-15T10:57:03.071Z,0.200000003
2023-01-15T10:58:10.362Z,0.100000001
2023-01-15T10:59:05.906Z,0
2023-01-15T11:00:07.448Z,0.200000003
2023-01-15T11:01:08.604Z,0.100000001
2023-01-15T11:02:10.003Z,0
2023-01-15T11:03:11.633Z,0
2023-01-15T11:04:13.518Z,0
2023-01-15T11:05:14.399Z,0.300000012
2023-01-15T11:06:15.315Z,0.100000001
2023-01-15T11:07:16.326Z,0.100000001
2023-01-15T11:09:02.288Z,0.100000001
2023-01-15T11:09:49.167Z,0.100000001
2023-01-15T11:10:51.135Z,0
2023-01-15T11:11:52.015Z,0
2023-01-15T11:12:53.658Z,0.200000003
2023-01-15T11:13:55.066Z,0.100000001
2023-01-15T11:14:56.115Z,0.100000001
2023-01-15T11:15:57.855Z,0.100000001
2023-01-15T11:16:58.895Z,0.100000001
2023-01-15T11:18:00.129Z,0
2023-01-15T11:19:01.509Z,0.100000001
2023-01-15T11:20:03.099Z,0
2023-01-15T11:21:04.603Z,0.100000001
2023-01-15T11:22:05.537Z,0.200000003
2023-01-15T11:23:06.429Z,0
2023-01-15T11:24:08.460Z,0
2023-01-15T11:25:09.240Z,0
2023-01-15T11:26:10.040Z,0
2023-01-15T11:27:10.765Z,0
2023-01-15T11:28:11.719Z,0
2023-01-15T11:29:12.784Z,0.100000001
2023-01-15T11:30:14.425Z,0.100000001
2023-01-15T11:31:15.338Z,0.100000001
2023-01-15T11:32:16.184Z,0.5
2023-01-15T11:33:16.933Z,0.200000003
2023-01-15T11:34:20.884Z,0.100000001
2023-01-15T11:35:49.897Z,0.100000001
2023-01-15T11:36:50.652Z,0.100000001
2023-01-15T11:37:51.544Z,0.100000001
2023-01-15T11:38:52.510Z,0.200000003
2023-01-15T11:39:53.588Z,0.100000001
2023-01-15T11:40:54.888Z,0.100000001
2023-01-15T11:41:55.743Z,0.100000001
2023-01-15T11:42:56.703Z,0.200000003
2023-01-15T11:43:58.513Z,0.100000001
2023-01-15T11:45:00.569Z,0.100000001
2023-01-15T11:46:01.608Z,0
2023-01-15T11:47:02.592Z,0
2023-01-15T11:48:04.302Z,0
2023-01-15T11:49:05.277Z,0
2023-01-15T11:50:06.489Z,0.100000001
2023-01-15T11:51:08.701Z,0
2023-01-15T11:52:09.582Z,0.200000003
2023-01-15T11:53:11.413Z,0.100000001
2023-01-15T11:54:12.331Z,0
2023-01-15T11:55:13.194Z,0.400000006
2023-01-15T11:56:14.247Z,0.100000001
2023-01-15T11:57:15.313Z,0.400000006
2023-01-15T11:58:16.325Z,0.400000006
2023-01-15T11:59:17.195Z,0.300000012
2023-01-15T12:00:49.582Z,0.100000001
2023-01-15T12:01:51.509Z,0